createdAt,value
2022-12-27T00:01:45.518Z,3
2022-12-27T00:07:45.703Z,2
2022-12-27T00:13:45.256Z,3
2022-12-27T00:19:46.149Z,3
2022-12-27T00:25:45.553Z,3
2022-12-27T00:31:45.692Z,3
2022-12-27T00:37:45.484Z,2
2022-12-27T00:43:45.050Z,2
2022-12-27T00:50:05.235Z,4
2022-12-27T00:56:09.877Z,3
2022-12-27T01:02:26.649Z,2
2022-12-27T01:08:04.360Z,3
2022-12-27T01:13:54.836Z,3
2022-12-27T01:20:11.682Z,2
2022-12-27T01:25:49.961Z,2
2022-12-27T01:32:00.534Z,2
2022-12-27T01:38:05.709Z,2
2022-12-27T01:44:14.805Z,2
2022-12-27T01:49:51.756Z,2
2022-12-27T01:55:52.991Z,2
2022-12-27T02:01:53.427Z,3
2022-12-27T02:08:12.528Z,2
2022-12-27T02:13:49.467Z,2
2022-12-27T02:19:55.263Z,2
2022-12-27T02:25:44.931Z,2
2022-12-27T02:31:45.414Z,2
2022-12-27T02:37:58.985Z,2
2022-12-27T02:44:07.929Z,3
2022-12-27T02:49:55.671Z,2
2022-12-27T02:55:48.378Z,2
2022-12-27T03:01:46.453Z,2
2022-12-27T03:07:46.280Z,2
2022-12-27T03:13:46.682Z,2
2022-12-27T03:19:56.844Z,2
2022-12-27T03:26:00.512Z,2
2022-12-27T03:31:52.447Z,2
2022-12-27T03:38:03.532Z,2
2022-12-27T03:43:50.563Z,1
2022-12-27T03:49:45.970Z,2
2022-12-27T03:55:50.339Z,2
2022-12-27T04:02:32.823Z,2
2022-12-27T04:08:14.180Z,1
2022-12-27T04:13:59.857Z,2
2022-12-27T04:19:48.951Z,2
2022-12-27T04:26:03.143Z,2
2022-12-27T04:32:00.433Z,2
2022-12-27T04:37:54.940Z,2
2022-12-27T04:43:57.586Z,2
2022-12-27T04:49:57.008Z,2
2022-12-27T04:55:49.851Z,2
2022-12-27T05:02:11.444Z,2
2022-12-27T05:08:01.406Z,2
2022-12-27T05:13:49.924Z,2
2022-12-27T05:19:55.093Z,2
2022-12-27T05:25:51.601Z,2
2022-12-27T05:31:53.641Z,2
2022-12-27T05:37:56.353Z,2
2022-12-27T05:44:12.809Z,2
2022-12-27T05:49:59.692Z,2
2022-12-27T05:55:48.208Z,2
2022-12-27T06:02:30.313Z,2
2022-12-27T06:07:51.563Z,2
2022-12-27T06:14:06.372Z,1
2022-12-27T06:20:13.573Z,2
2022-12-27T06:26:21.620Z,2
2022-12-27T06:32:29.667Z,2
2022-12-27T06:38:36.720Z,2
2022-12-27T06:44:16.534Z,2
2022-12-27T06:50:18.162Z,2
2022-12-27T06:55:56.819Z,2
2022-12-27T07:02:13.277Z,3
2022-12-27T07:08:06.604Z,3
2022-12-27T07:14:04.367Z,3
2022-12-27T07:19:51.842Z,3
2022-12-27T07:25:52.245Z,3
2022-12-27T07:32:06.286Z,3
2022-12-27T07:38:06.831Z,4
2022-12-27T07:44:52.500Z,4
2022-12-27T07:49:54.831Z,4
2022-12-27T07:56:07.171Z,4
2022-12-27T08:02:07.741Z,4
2022-12-27T08:07:51.388Z,4
2022-12-27T08:14:02.454Z,4
2022-12-27T08:20:24.474Z,3
2022-12-27T08:26:18.576Z,4
2022-12-27T08:31:58.391Z,4
2022-12-27T08:37:52.923Z,4
2022-12-27T08:43:50.751Z,4
2022-12-27T08:49:56.642Z,6
2022-12-27T08:56:00.656Z,5
2022-12-27T09:01:51.848Z,5
2022-12-27T09:07:56.348Z,4
2022-12-27T09:14:00.915Z,5
2022-12-27T09:20:08.132Z,4
2022-12-27T09:26:08.093Z,3
2022-12-27T09:32:18.280Z,2
2022-12-27T09:38:09.227Z,2
2022-12-27T09:43:47.036Z,2
2022-12-27T09:49:45.153Z,2
2022-12-27T09:55:45.463Z,2
2022-12-27T10:01:56.225Z,2
2022-12-27T10:07:47.057Z,3
2022-12-27T10:16:45.073Z,3
2022-12-27T10:22:45.659Z,3
2022-12-27T10:28:56.836Z,2
2022-12-27T10:34:49.079Z,2
2022-12-27T10:40:55.912Z,2
2022-12-27T10:46:49.968Z,2
2022-12-27T10:52:57.196Z,2
2022-12-27T10:58:46.351Z,2
2022-12-27T11:04:49.791Z,2
2022-12-27T11:10:47.379Z,2
2022-12-27T11:16:46.269Z,2
2022-12-27T11:22:45.741Z,2
2022-12-27T11:28:54.241Z,2
2022-12-27T11:34:52.397Z,1
2022-12-27T11:40:53.344Z,1
2022-12-27T11:46:46.019Z,2
2022-12-27T11:52:48.341Z,1
2022-12-27T12:01:49.770Z,1
2022-12-27T12:07:44.990Z,1
2022-12-27T12:13:45.329Z,2
2022-12-27T12:19:46.105Z,2
2022-12-27T12:25:45.024Z,2
2022-12-27T12:31:45.703Z,2
2022-12-27T12:43:45.390Z,2
2022-12-27T12:55:46.278Z,2
2022-12-27T13:01:50.556Z,2
2022-12-27T13:07:45.352Z,2
2022-12-27T13:13:48.107Z,1
2022-12-27T13:22:46.255Z,2
2022-12-27T13:28:45.036Z,2
2022-12-27T13:34:45.140Z,2
2022-12-27T13:40:45.703Z,2
2022-12-27T13:49:45.440Z,2
2022-12-27T13:55:45.032Z,2
2022-12-27T14:13:45.071Z,2
2022-12-27T14:22:49.697Z,1
2022-12-27T14:37:45.018Z,1
2022-12-27T14:43:45.153Z,1
2022-12-27T14:55:44.916Z,2
2022-12-27T15:01:45.132Z,2
2022-12-27T15:07:45.201Z,2
2022-12-27T15:13:45.119Z,2
2022-12-27T15:19:44.978Z,2
2022-12-27T15:25:45.258Z,2
2022-12-27T15:31:45.157Z,2
2022-12-27T15:37:45.079Z,2
2022-12-27T15:43:45.022Z,2
2022-12-27T15:49:44.940Z,2
2022-12-27T15:55:45.626Z,2
2022-12-27T16:01:45.125Z,2
2022-12-27T16:07:46.395Z,2
2022-12-27T16:19:45.463Z,2
2022-12-27T16:25:58.043Z,2
2022-12-27T16:31:55.701Z,2
2022-12-27T16:37:46.431Z,2
2022-12-27T16:49:45.682Z,2
2022-12-27T16:55:45.321Z,3
2022-12-27T17:01:49.923Z,2
2022-12-27T17:07:46.294Z,3
2022-12-27T17:13:45.520Z,2
2022-12-27T17:19:53.119Z,2
2022-12-27T17:25:51.979Z,3
2022-12-27T17:31:45.947Z,3
2022-12-27T17:37:45.298Z,3
2022-12-27T17:43:45.479Z,2
2022-12-27T17:49:46.003Z,2
2022-12-27T17:55:56.854Z,3
2022-12-27T18:01:54.511Z,2
2022-12-27T18:07:52.817Z,3
2022-12-27T18:13:53.425Z,2
2022-12-27T18:19:52.701Z,3
2022-12-27T18:25:49.732Z,3
2022-12-27T18:31:50.625Z,3
2022-12-27T18:37:51.464Z,3
2022-12-27T18:44:00.348Z,3
2022-12-27T18:49:48.984Z,3
2022-12-27T18:55:54.230Z,3
2022-12-27T19:01:48.362Z,3
2022-12-27T19:07:45.654Z,3
2022-12-27T19:13:46.147Z,3
2022-12-27T19:19:53.048Z,3
2022-12-27T19:25:45.748Z,3
2022-12-27T19:31:50.919Z,4
2022-12-27T19:37:45.857Z,4
2022-12-27T19:43:47.716Z,3
2022-12-27T19:49:49.179Z,4
2022-12-27T19:55:53.388Z,4
2022-12-27T20:01:54.980Z,4
2022-12-27T20:07:56.335Z,4
2022-12-27T20:14:00.043Z,5
2022-12-27T20:19:56.413Z,5
2022-12-27T20:25:54.542Z,5
2022-12-27T20:32:00.450Z,5
2022-12-27T20:37:55.677Z,6
2022-12-27T20:43:52.479Z,6
2022-12-27T20:49:49.348Z,6
2022-12-27T20:55:54.648Z,6
2022-12-27T21:02:06.400Z,6
2022-12-27T21:07:53.773Z,6
2022-12-27T21:13:52.096Z,5
2022-12-27T21:19:55.364Z,5
2022-12-27T21:25:45.564Z,5
2022-12-27T21:31:47.240Z,5
2022-12-27T21:37:45.487Z,4
2022-12-27T21:43:45.455Z,4
2022-12-27T21:49:45.386Z,5
2022-12-27T21:55:45.436Z,5
2022-12-27T22:01:49.933Z,8
2022-12-27T22:07:45.811Z,7
2022-12-27T22:13:45.579Z,6
2022-12-27T22:19:45.929Z,5
2022-12-27T22:25:45.411Z,5
2022-12-27T22:31:45.646Z,4
2022-12-27T22:37:45.699Z,3
2022-12-27T22:43:45.347Z,3
2022-12-27T22:49:45.663Z,2
2022-12-27T22:55:46.912Z,2
2022-12-27T23:01:46.652Z,2
2022-12-27T23:08:04.817Z,2
2022-12-27T23:13:45.454Z,3
2022-12-27T23:19:45.548Z,3
2022-12-27T23:25:45.858Z,3
2022-12-27T23:31:54.059Z,3
2022-12-27T23:37:45.462Z,4
2022-12-27T23:43:54.528Z,4
2022-12-27T23:49:46.592Z,3
2022-12-27T23:55:45.497Z,3
